Terminal Aerodrome Forecast
Issued by NWS

Home | Current Version | Previous Version | Text Only | Print | Product List | Glossary Off
Versions: 1 2 3 4 5 6 7 8 9 10 11 12 13 14

000
FTUS43 KMPX 282337
TAFAXN
TAF
KAXN 282337Z 2900/2924 17021G28KT P6SM SCT090 BKN250
     FM290500 18018G28KT P6SM -RA SCT040 BKN090
     FM290800 20015G25KT P6SM VCSH SCT020 BKN040
     FM291200 26018G26KT P6SM -SHRA BKN020 OVC040
     FM291400 31028G40KT P6SM OVC020
     FM291800 32026G35KT P6SM SCT030=

USA.gov is the U.S. government's official web portal to all federal, state and local government web resources and services.